Time;durP1;ratioP1;P1;durP2;ratioP2;P2;SDS_P1;SDS_P2;PMS_P1;PMS_P2;Temp;Humidity;BMP_temperature;BMP_pressure;BME280_temperature;BME280_humidity;BME280_pressure;Samples;Min_cycle;Max_cycle;Signal;HPM_P1;HPM_P2
2022/07/04 00:02:10;;;;;;;;;3.00;1.33;;;;;;;;4879866;29;45225;-75
2022/07/04 00:04:35;;;;;;;;;1.00;1.00;;;;;;;;4881257;29;45166;-73
2022/07/04 00:07:00;;;;;;;;;1.00;1.00;;;;;;;;4886262;29;45552;-74
2022/07/04 00:09:25;;;;;;;;;3.00;2.00;;;;;;;;4884125;29;45458;-74
2022/07/04 00:11:50;;;;;;;;;1.00;1.00;;;;;;;;4891835;29;45284;-73
2022/07/04 00:14:16;;;;;;;;;4.00;2.00;;;;;;;;4883273;29;45409;-74
2022/07/04 00:16:41;;;;;;;;;1.00;1.00;;;;;;;;4884306;29;45622;-74
2022/07/04 00:19:07;;;;;;;;;1.00;1.00;;;;;;;;4886351;28;45598;-74
2022/07/04 00:21:32;;;;;;;;;1.00;1.00;;;;;;;;4888069;29;45404;-74
2022/07/04 00:23:57;;;;;;;;;1.00;1.00;;;;;;;;4890095;29;45449;-74
2022/07/04 00:26:22;;;;;;;;;2.00;2.00;;;;;;;;4889287;29;45344;-74
2022/07/04 00:28:47;;;;;;;;;3.00;3.00;;;;;;;;4894241;28;46364;-74
2022/07/04 00:31:13;;;;;;;;;3.00;2.00;;;;;;;;4876396;29;45281;-74
2022/07/04 00:33:38;;;;;;;;;1.00;1.00;;;;;;;;4893963;29;45297;-74
2022/07/04 00:36:03;;;;;;;;;3.00;1.33;;;;;;;;4873514;29;45251;-74
2022/07/04 00:38:28;;;;;;;;;0.67;0.67;;;;;;;;4888210;28;47628;-75
2022/07/04 00:40:54;;;;;;;;;2.00;1.00;;;;;;;;4891683;28;45789;-75
2022/07/04 00:43:26;;;;;;;;;2.00;2.00;;;;;;;;4879606;29;45316;-75
2022/07/04 00:45:52;;;;;;;;;2.00;2.00;;;;;;;;4876248;29;45580;-75
2022/07/04 00:48:18;;;;;;;;;1.00;1.00;;;;;;;;4894033;29;45517;-76
2022/07/04 00:50:44;;;;;;;;;2.00;1.00;;;;;;;;4881515;28;45375;-75
2022/07/04 00:53:09;;;;;;;;;1.00;1.00;;;;;;;;4882535;29;45292;-75
2022/07/04 00:55:34;;;;;;;;;0.33;0.33;;;;;;;;4886748;29;46909;-75
2022/07/04 00:58:00;;;;;;;;;1.00;1.00;;;;;;;;4891373;29;47642;-75
2022/07/04 01:00:25;;;;;;;;;1.00;1.00;;;;;;;;4884260;29;45425;-75
2022/07/04 01:02:50;;;;;;;;;0.00;0.00;;;;;;;;4887635;29;45340;-75
2022/07/04 01:05:16;;;;;;;;;0.00;0.00;;;;;;;;4885887;29;45343;-75
2022/07/04 01:07:42;;;;;;;;;1.00;1.00;;;;;;;;4882377;29;46507;-75
2022/07/04 01:10:07;;;;;;;;;1.00;1.00;;;;;;;;4881962;29;45276;-75
2022/07/04 01:12:33;;;;;;;;;0.00;0.00;;;;;;;;4885272;29;45845;-74
2022/07/04 01:14:58;;;;;;;;;3.33;1.00;;;;;;;;4881651;29;47135;-75
2022/07/04 01:17:23;;;;;;;;;1.67;1.00;;;;;;;;4885446;29;45353;-74
2022/07/04 01:19:48;;;;;;;;;1.00;1.00;;;;;;;;4887212;29;45285;-75
2022/07/04 01:22:15;;;;;;;;;3.00;1.00;;;;;;;;4889783;29;45409;-74
2022/07/04 01:24:40;;;;;;;;;2.00;0.67;;;;;;;;4892231;29;45573;-74
2022/07/04 01:27:05;;;;;;;;;1.00;1.00;;;;;;;;4893230;29;45498;-74
2022/07/04 01:29:31;;;;;;;;;1.00;1.00;;;;;;;;4890606;28;45208;-75
2022/07/04 01:31:56;;;;;;;;;1.00;1.00;;;;;;;;4878622;29;45383;-74
2022/07/04 01:34:21;;;;;;;;;1.00;1.00;;;;;;;;4886707;29;45384;-75
2022/07/04 01:36:46;;;;;;;;;1.00;1.00;;;;;;;;4880181;29;45401;-74
2022/07/04 01:39:12;;;;;;;;;1.33;1.00;;;;;;;;4884117;29;45759;-74
2022/07/04 01:41:37;;;;;;;;;1.00;1.00;;;;;;;;4881744;29;45341;-75
2022/07/04 01:44:02;;;;;;;;;1.00;1.00;;;;;;;;4887479;29;47372;-74
2022/07/04 01:46:27;;;;;;;;;3.00;2.00;;;;;;;;4882584;29;46351;-74
2022/07/04 01:48:53;;;;;;;;;1.33;1.33;;;;;;;;4896621;29;45435;-74
2022/07/04 01:51:18;;;;;;;;;0.00;0.00;;;;;;;;4885040;29;45603;-74
2022/07/04 01:53:43;;;;;;;;;2.00;1.00;;;;;;;;4891463;29;46422;-75
2022/07/04 01:56:08;;;;;;;;;2.00;1.00;;;;;;;;4889358;29;45494;-74
2022/07/04 01:58:34;;;;;;;;;1.00;1.00;;;;;;;;4896776;29;45350;-75
2022/07/04 02:03:43;;;;;;;;;3.00;1.67;;;;;;;;4897834;29;45492;-74
2022/07/04 02:06:08;;;;;;;;;0.33;0.33;;;;;;;;4888813;29;45593;-74
2022/07/04 02:11:17;;;;;;;;;2.00;2.00;;;;;;;;4890050;29;45401;-74
2022/07/04 02:13:43;;;;;;;;;2.00;2.00;;;;;;;;4897072;28;45610;-74
2022/07/04 02:16:08;;;;;;;;;2.00;2.00;;;;;;;;4888291;29;45379;-75
2022/07/04 02:18:33;;;;;;;;;2.00;2.00;;;;;;;;4900462;28;45672;-74
2022/07/04 02:20:58;;;;;;;;;3.67;1.00;;;;;;;;4883813;29;45372;-74
2022/07/04 02:23:24;;;;;;;;;1.00;1.00;;;;;;;;4905004;28;45313;-74
2022/07/04 02:25:49;;;;;;;;;2.00;2.00;;;;;;;;4874008;28;45499;-74
2022/07/04 02:28:14;;;;;;;;;3.00;1.67;;;;;;;;4888264;28;45345;-74
2022/07/04 02:30:39;;;;;;;;;1.00;1.00;;;;;;;;4876925;29;45306;-74
2022/07/04 02:33:04;;;;;;;;;2.00;1.00;;;;;;;;4892261;29;45515;-74
2022/07/04 02:35:30;;;;;;;;;2.00;2.00;;;;;;;;4882898;28;46586;-74
2022/07/04 02:37:55;;;;;;;;;2.00;2.00;;;;;;;;4898007;29;45339;-74
2022/07/04 02:40:20;;;;;;;;;1.67;1.67;;;;;;;;4881907;29;45280;-74
2022/07/04 02:42:45;;;;;;;;;2.00;2.00;;;;;;;;4893094;28;45447;-75
2022/07/04 02:45:11;;;;;;;;;2.67;2.00;;;;;;;;4882798;28;45396;-74
2022/07/04 02:47:36;;;;;;;;;3.00;2.00;;;;;;;;4895072;29;45306;-74
2022/07/04 02:50:02;;;;;;;;;2.33;2.33;;;;;;;;4883758;28;45282;-74
2022/07/04 02:52:27;;;;;;;;;2.00;2.00;;;;;;;;4879290;28;45760;-74
2022/07/04 02:54:52;;;;;;;;;3.00;3.00;;;;;;;;4880906;29;46201;-75
2022/07/04 02:57:18;;;;;;;;;2.33;2.00;;;;;;;;4886346;29;45245;-74
2022/07/04 02:59:43;;;;;;;;;1.67;1.67;;;;;;;;4883340;29;45284;-74
2022/07/04 03:02:08;;;;;;;;;5.00;3.00;;;;;;;;4887521;28;46102;-74
2022/07/04 03:04:34;;;;;;;;;3.67;2.00;;;;;;;;4882334;29;46384;-75
2022/07/04 03:06:59;;;;;;;;;2.00;2.00;;;;;;;;4888312;29;45304;-74
2022/07/04 03:09:27;;;;;;;;;2.00;2.00;;;;;;;;4894541;29;45634;-74
2022/07/04 03:11:52;;;;;;;;;2.33;2.33;;;;;;;;4879166;29;45897;-74
2022/07/04 03:14:17;;;;;;;;;4.67;2.33;;;;;;;;4878639;29;45468;-74
2022/07/04 03:16:42;;;;;;;;;4.00;4.00;;;;;;;;4887614;29;45328;-75
2022/07/04 03:19:08;;;;;;;;;3.00;3.00;;;;;;;;4892699;28;45460;-75
2022/07/04 03:21:33;;;;;;;;;2.67;2.00;;;;;;;;4884429;29;45463;-75
2022/07/04 03:23:58;;;;;;;;;3.00;1.00;;;;;;;;4888454;29;47238;-75
2022/07/04 03:26:25;;;;;;;;;3.67;3.00;;;;;;;;4891428;29;45597;-74
2022/07/04 03:28:50;;;;;;;;;2.67;2.67;;;;;;;;4899322;29;45514;-75
2022/07/04 03:31:16;;;;;;;;;1.00;1.00;;;;;;;;4877105;29;45533;-74
2022/07/04 03:33:41;;;;;;;;;2.67;2.67;;;;;;;;4884287;29;47166;-74
2022/07/04 03:36:06;;;;;;;;;2.00;2.00;;;;;;;;4896242;29;45472;-74
2022/07/04 03:38:31;;;;;;;;;2.00;2.00;;;;;;;;4899650;29;45185;-74
2022/07/04 03:40:56;;;;;;;;;3.00;3.00;;;;;;;;4888038;29;45626;-74
2022/07/04 03:43:22;;;;;;;;;2.00;2.00;;;;;;;;4896387;29;46282;-75
2022/07/04 03:45:47;;;;;;;;;4.00;3.00;;;;;;;;4881989;29;45378;-74
2022/07/04 03:48:12;;;;;;;;;2.33;2.33;;;;;;;;4889120;29;45319;-75
2022/07/04 03:50:37;;;;;;;;;3.67;1.33;;;;;;;;4886576;29;45913;-74
2022/07/04 03:53:02;;;;;;;;;2.00;2.00;;;;;;;;4896684;29;45408;-74
2022/07/04 03:55:28;;;;;;;;;1.33;1.33;;;;;;;;4888649;29;45343;-74
2022/07/04 03:57:53;;;;;;;;;5.00;3.33;;;;;;;;4894090;28;45311;-74
2022/07/04 04:00:18;;;;;;;;;3.00;2.00;;;;;;;;4886335;29;44836;-74
2022/07/04 04:02:43;;;;;;;;;3.00;3.00;;;;;;;;4896774;28;46864;-74
2022/07/04 04:05:27;;;;;;;;;2.00;2.00;;;;;;;;4887503;29;45411;-74
2022/07/04 04:07:56;;;;;;;;;3.00;2.00;;;;;;;;4897889;29;45397;-74
2022/07/04 04:10:21;;;;;;;;;3.00;2.00;;;;;;;;4877702;28;45535;-74
2022/07/04 04:12:46;;;;;;;;;2.00;2.00;;;;;;;;4879927;29;46089;-74
2022/07/04 04:15:11;;;;;;;;;3.00;2.00;;;;;;;;4881843;29;45326;-74
2022/07/04 04:17:37;;;;;;;;;2.00;2.00;;;;;;;;4885070;29;45309;-74
2022/07/04 04:20:02;;;;;;;;;3.00;2.00;;;;;;;;4886774;28;45504;-74
2022/07/04 04:22:30;;;;;;;;;0.33;0.33;;;;;;;;4887033;29;45363;-74
2022/07/04 04:24:57;;;;;;;;;3.00;3.00;;;;;;;;4883882;29;45487;-74
2022/07/04 04:27:22;;;;;;;;;2.00;2.00;;;;;;;;4889222;29;45341;-74
2022/07/04 04:29:47;;;;;;;;;2.00;2.00;;;;;;;;4887101;28;45554;-74
2022/07/04 04:32:12;;;;;;;;;3.33;1.00;;;;;;;;4894854;29;45324;-74
2022/07/04 04:34:38;;;;;;;;;2.00;2.00;;;;;;;;4897451;28;45353;-74
2022/07/04 04:37:03;;;;;;;;;2.00;2.00;;;;;;;;4898468;29;45218;-73
2022/07/04 04:39:28;;;;;;;;;1.00;1.00;;;;;;;;4897280;28;45514;-74
2022/07/04 04:41:54;;;;;;;;;2.00;2.00;;;;;;;;4899283;28;45417;-74
2022/07/04 04:44:19;;;;;;;;;2.33;2.33;;;;;;;;4895953;28;45492;-74
2022/07/04 04:46:45;;;;;;;;;2.67;2.67;;;;;;;;4900912;28;45435;-73
2022/07/04 04:49:10;;;;;;;;;4.33;2.33;;;;;;;;4891057;29;45475;-73
2022/07/04 04:51:35;;;;;;;;;4.00;2.67;;;;;;;;4899737;28;46281;-73
2022/07/04 04:54:00;;;;;;;;;2.00;2.00;;;;;;;;4896181;29;45317;-72
2022/07/04 04:56:25;;;;;;;;;3.00;3.00;;;;;;;;4898688;29;45231;-73
2022/07/04 04:58:51;;;;;;;;;3.00;3.00;;;;;;;;4897911;29;45484;-73
2022/07/04 05:01:16;;;;;;;;;3.00;2.00;;;;;;;;4897290;29;46334;-73
2022/07/04 05:03:41;;;;;;;;;5.00;3.67;;;;;;;;4899375;28;46988;-73
2022/07/04 05:06:06;;;;;;;;;3.33;3.00;;;;;;;;4900400;29;45331;-73
2022/07/04 05:08:32;;;;;;;;;3.00;3.00;;;;;;;;4904707;28;46570;-72
2022/07/04 05:10:57;;;;;;;;;4.67;4.67;;;;;;;;4898161;29;45494;-73
2022/07/04 05:13:22;;;;;;;;;2.00;2.00;;;;;;;;4905212;28;45574;-74
2022/07/04 05:15:48;;;;;;;;;4.00;3.33;;;;;;;;4897246;28;46008;-74
2022/07/04 05:18:13;;;;;;;;;2.67;2.67;;;;;;;;4903390;29;45409;-74
2022/07/04 05:20:39;;;;;;;;;2.00;2.00;;;;;;;;4897333;29;47159;-73
2022/07/04 05:23:04;;;;;;;;;2.00;2.00;;;;;;;;4902324;29;45357;-73
2022/07/04 05:25:29;;;;;;;;;5.00;3.00;;;;;;;;4898160;28;45471;-74
2022/07/04 05:27:54;;;;;;;;;2.67;2.67;;;;;;;;4903430;28;45498;-73
2022/07/04 05:30:20;;;;;;;;;3.00;3.00;;;;;;;;4897010;28;46716;-74
2022/07/04 05:32:45;;;;;;;;;3.00;3.00;;;;;;;;4903552;29;45494;-73
2022/07/04 05:35:10;;;;;;;;;4.33;3.00;;;;;;;;4898516;28;45526;-73
2022/07/04 05:37:35;;;;;;;;;2.00;2.00;;;;;;;;4903324;28;45443;-74
2022/07/04 05:40:01;;;;;;;;;4.00;3.00;;;;;;;;4882010;29;45570;-73
2022/07/04 05:42:27;;;;;;;;;3.33;2.33;;;;;;;;4891552;29;45653;-75
2022/07/04 05:44:52;;;;;;;;;4.67;3.00;;;;;;;;4881617;28;45623;-74
2022/07/04 05:47:18;;;;;;;;;3.33;3.33;;;;;;;;4892675;29;45164;-76
2022/07/04 05:49:43;;;;;;;;;3.67;2.00;;;;;;;;4885250;28;45335;-76
2022/07/04 05:52:08;;;;;;;;;3.00;3.00;;;;;;;;4894645;29;45238;-75
2022/07/04 05:54:34;;;;;;;;;4.00;3.00;;;;;;;;4891173;28;45331;-76
2022/07/04 05:56:59;;;;;;;;;2.00;2.00;;;;;;;;4887181;29;46414;-74
2022/07/04 05:59:24;;;;;;;;;3.00;2.00;;;;;;;;4884519;29;47955;-73
2022/07/04 06:01:49;;;;;;;;;3.00;3.00;;;;;;;;4881107;29;45418;-73
2022/07/04 06:04:14;;;;;;;;;4.00;4.00;;;;;;;;4886554;29;45931;-74
2022/07/04 06:06:40;;;;;;;;;2.67;2.67;;;;;;;;4889983;29;45420;-73
2022/07/04 06:09:05;;;;;;;;;4.33;3.00;;;;;;;;4897957;28;45337;-73
2022/07/04 06:11:30;;;;;;;;;3.67;3.00;;;;;;;;4894837;28;45481;-73
2022/07/04 06:13:55;;;;;;;;;3.00;3.00;;;;;;;;4876654;29;45321;-74
2022/07/04 06:16:21;;;;;;;;;4.00;4.00;;;;;;;;4882496;29;45527;-73
2022/07/04 06:18:46;;;;;;;;;4.00;4.00;;;;;;;;4885829;29;48400;-74
2022/07/04 06:21:11;;;;;;;;;4.67;4.00;;;;;;;;4882861;29;45229;-73
2022/07/04 06:23:36;;;;;;;;;4.00;4.00;;;;;;;;4890505;28;45622;-74
2022/07/04 06:26:02;;;;;;;;;5.67;4.00;;;;;;;;4886744;29;45331;-74
2022/07/04 06:28:27;;;;;;;;;4.00;4.00;;;;;;;;4895831;28;45592;-74
2022/07/04 06:30:52;;;;;;;;;4.00;4.00;;;;;;;;4877174;29;45358;-73
2022/07/04 06:33:18;;;;;;;;;4.00;4.00;;;;;;;;4888088;29;45329;-73
2022/07/04 06:35:49;;;;;;;;;3.33;3.33;;;;;;;;4882187;29;45435;-73
2022/07/04 06:38:14;;;;;;;;;7.00;5.00;;;;;;;;4886224;29;45689;-74
2022/07/04 06:40:40;;;;;;;;;5.00;5.00;;;;;;;;4882601;29;45326;-73
2022/07/04 06:43:05;;;;;;;;;4.00;4.00;;;;;;;;4894345;28;45483;-74
2022/07/04 06:45:30;;;;;;;;;3.67;3.67;;;;;;;;4883596;29;45811;-74
2022/07/04 06:47:56;;;;;;;;;5.33;3.00;;;;;;;;4886064;28;45504;-73
2022/07/04 06:50:21;;;;;;;;;4.00;3.67;;;;;;;;4882585;29;45256;-74
2022/07/04 06:52:46;;;;;;;;;3.33;3.33;;;;;;;;4885438;29;45487;-74
2022/07/04 06:55:12;;;;;;;;;4.00;3.00;;;;;;;;4884779;29;45383;-74
2022/07/04 06:57:37;;;;;;;;;3.33;3.33;;;;;;;;4889226;28;45438;-74
2022/07/04 07:00:04;;;;;;;;;2.00;2.00;;;;;;;;4883303;29;45473;-74
2022/07/04 07:02:29;;;;;;;;;2.67;2.00;;;;;;;;4884762;29;45369;-74
2022/07/04 07:04:55;;;;;;;;;2.33;2.33;;;;;;;;4888119;29;45412;-73
2022/07/04 07:07:21;;;;;;;;;3.67;2.67;;;;;;;;4891606;28;45591;-73
2022/07/04 07:09:46;;;;;;;;;2.33;2.33;;;;;;;;4887626;29;45309;-74
2022/07/04 07:12:11;;;;;;;;;5.33;2.67;;;;;;;;4885485;29;45590;-73
2022/07/04 07:14:36;;;;;;;;;1.00;1.00;;;;;;;;4886875;29;45341;-74
2022/07/04 07:17:02;;;;;;;;;1.67;0.00;;;;;;;;4889544;28;46482;-73
2022/07/04 07:19:28;;;;;;;;;3.00;2.00;;;;;;;;4894385;28;45245;-73
2022/07/04 07:21:53;;;;;;;;;2.00;2.00;;;;;;;;4891649;29;45405;-73
2022/07/04 07:24:18;;;;;;;;;2.33;2.00;;;;;;;;4890673;28;45352;-73
2022/07/04 07:26:43;;;;;;;;;1.00;1.00;;;;;;;;4894223;28;45355;-74
2022/07/04 07:29:08;;;;;;;;;2.00;2.00;;;;;;;;4896380;28;45503;-73
2022/07/04 07:31:34;;;;;;;;;1.00;1.00;;;;;;;;4874880;29;45257;-73
2022/07/04 07:33:59;;;;;;;;;4.00;2.67;;;;;;;;4886205;29;45397;-73
2022/07/04 07:36:24;;;;;;;;;2.67;1.33;;;;;;;;4880202;29;46429;-73
2022/07/04 07:38:49;;;;;;;;;3.67;1.67;;;;;;;;4888900;29;45401;-73
2022/07/04 07:41:15;;;;;;;;;2.25;2.00;;;;;;;;4900401;28;45479;-73
2022/07/04 07:43:40;;;;;;;;;2.00;1.33;;;;;;;;4891024;29;45462;-73
2022/07/04 07:46:06;;;;;;;;;2.50;1.00;;;;;;;;4881448;29;45563;-73
2022/07/04 07:48:32;;;;;;;;;2.00;2.00;;;;;;;;4893578;28;45233;-77
2022/07/04 07:50:57;;;;;;;;;2.75;1.75;;;;;;;;4882607;28;45547;-73
2022/07/04 07:53:22;;;;;;;;;2.00;2.00;;;;;;;;4899175;29;45365;-76
2022/07/04 07:55:47;;;;;;;;;2.00;2.00;;;;;;;;4892598;29;46036;-76
2022/07/04 07:58:12;;;;;;;;;2.00;2.00;;;;;;;;4895072;29;45353;-76
2022/07/04 08:00:38;;;;;;;;;2.75;2.00;;;;;;;;4885748;28;45437;-76
2022/07/04 08:05:47;;;;;;;;;1.25;1.00;;;;;;;;4877215;29;45450;-76
2022/07/04 08:08:12;;;;;;;;;5.50;2.50;;;;;;;;4886312;29;45327;-76
2022/07/04 08:10:38;;;;;;;;;1.50;1.50;;;;;;;;4889277;29;45472;-76
2022/07/04 08:13:04;;;;;;;;;2.00;0.75;;;;;;;;4892052;28;45305;-76
2022/07/04 08:15:29;;;;;;;;;3.25;2.00;;;;;;;;4885090;28;45614;-76
2022/07/04 08:17:54;;;;;;;;;2.25;1.25;;;;;;;;4891857;29;45521;-76
2022/07/04 08:20:19;;;;;;;;;2.25;2.00;;;;;;;;4890023;28;45564;-76
2022/07/04 08:22:45;;;;;;;;;1.75;1.75;;;;;;;;4894409;29;45400;-76
2022/07/04 08:25:10;;;;;;;;;1.75;1.75;;;;;;;;4884532;29;45429;-76
2022/07/04 08:27:35;;;;;;;;;1.00;1.00;;;;;;;;4888775;29;45259;-76
2022/07/04 08:30:00;;;;;;;;;2.00;1.00;;;;;;;;4886810;28;45440;-76
2022/07/04 08:32:26;;;;;;;;;2.25;1.25;;;;;;;;4884812;29;45422;-75
2022/07/04 08:34:51;;;;;;;;;1.25;1.25;;;;;;;;4887649;28;45298;-76
2022/07/04 08:37:16;;;;;;;;;1.75;1.75;;;;;;;;4874144;29;45386;-76
2022/07/04 08:39:42;;;;;;;;;4.00;1.00;;;;;;;;4878579;29;45611;-76
2022/07/04 08:42:09;;;;;;;;;0.00;0.00;;;;;;;;4873394;29;45248;-75
2022/07/04 08:44:38;;;;;;;;;0.80;0.80;;;;;;;;4878371;29;47629;-75
2022/07/04 08:47:05;;;;;;;;;0.00;0.00;;;;;;;;4876697;29;45269;-76
2022/07/04 08:49:31;;;;;;;;;0.20;0.20;;;;;;;;4886838;28;45499;-76
2022/07/04 08:52:02;;;;;;;;;1.20;0.20;;;;;;;;4892190;28;45285;-76
2022/07/04 08:59:58;;;;;;;;;0.20;0.20;;;;;;;;4887595;29;45534;-76
2022/07/04 09:02:24;;;;;;;;;1.25;1.00;;;;;;;;4895183;28;46686;-77
2022/07/04 09:04:50;;;;;;;;;0.80;0.80;;;;;;;;4884963;29;47246;-76
2022/07/04 09:07:15;;;;;;;;;1.00;1.00;;;;;;;;4899600;29;45247;-76
2022/07/04 09:09:40;;;;;;;;;1.25;1.00;;;;;;;;4888693;28;45471;-76
2022/07/04 09:12:06;;;;;;;;;0.75;0.75;;;;;;;;4880123;29;45392;-76
2022/07/04 09:14:33;;;;;;;;;0.25;0.00;;;;;;;;4880872;29;45587;-76
2022/07/04 09:16:58;;;;;;;;;0.20;0.20;;;;;;;;4875308;28;45429;-77
2022/07/04 09:19:23;;;;;;;;;1.00;0.00;;;;;;;;4888338;29;45267;-76
2022/07/04 09:21:49;;;;;;;;;0.75;0.75;;;;;;;;4887880;29;45361;-76
2022/07/04 09:24:15;;;;;;;;;3.00;1.00;;;;;;;;4888591;29;45352;-76
2022/07/04 09:26:43;;;;;;;;;0.75;0.75;;;;;;;;4890930;29;45289;-77
2022/07/04 09:29:08;;;;;;;;;1.60;1.60;;;;;;;;4888093;29;45253;-76
2022/07/04 09:31:34;;;;;;;;;0.75;0.75;;;;;;;;4882041;29;45677;-77
2022/07/04 09:34:02;;;;;;;;;0.50;0.50;;;;;;;;4892013;29;46433;-77
2022/07/04 09:36:28;;;;;;;;;1.00;1.00;;;;;;;;4881346;29;45239;-77
2022/07/04 09:39:04;;;;;;;;;0.20;0.20;;;;;;;;4894131;29;45438;-76
2022/07/04 09:41:35;;;;;;;;;0.00;0.00;;;;;;;;4881848;29;45448;-77
2022/07/04 09:44:05;;;;;;;;;6.40;2.20;;;;;;;;4881999;29;45495;-78
2022/07/04 09:46:31;;;;;;;;;1.60;1.00;;;;;;;;4874066;29;45286;-77
2022/07/04 09:48:56;;;;;;;;;0.00;0.00;;;;;;;;4897114;28;45496;-77
2022/07/04 09:51:42;;;;;;;;;1.75;0.25;;;;;;;;4877969;29;45377;-77
2022/07/04 09:54:15;;;;;;;;;0.00;0.00;;;;;;;;4887929;29;46286;-78
2022/07/04 09:56:41;;;;;;;;;0.60;0.60;;;;;;;;4892852;29;45766;-77
2022/07/04 09:59:06;;;;;;;;;2.00;2.00;;;;;;;;4897030;29;45447;-77
2022/07/04 10:01:31;;;;;;;;;1.00;0.25;;;;;;;;4887114;29;45490;-77
2022/07/04 10:03:57;;;;;;;;;1.00;0.00;;;;;;;;4899712;28;45593;-77
2022/07/04 10:06:24;;;;;;;;;0.25;0.25;;;;;;;;4883084;29;45534;-78
2022/07/04 10:08:49;;;;;;;;;1.00;1.00;;;;;;;;4894824;28;45444;-77
2022/07/04 10:11:14;;;;;;;;;2.50;0.50;;;;;;;;4884816;29;45436;-77
2022/07/04 10:13:40;;;;;;;;;2.00;1.00;;;;;;;;4886962;29;47787;-77
2022/07/04 10:16:07;;;;;;;;;0.00;0.00;;;;;;;;4886038;29;45469;-77
2022/07/04 10:18:34;;;;;;;;;0.00;0.00;;;;;;;;4892659;28;45303;-77
2022/07/04 10:20:59;;;;;;;;;1.60;0.20;;;;;;;;4882741;29;45742;-77
2022/07/04 10:23:31;;;;;;;;;0.00;0.00;;;;;;;;4892578;29;45654;-77
2022/07/04 10:25:56;;;;;;;;;0.20;0.20;;;;;;;;4885187;29;45496;-78
2022/07/04 10:28:22;;;;;;;;;0.50;0.50;;;;;;;;4898097;29;45284;-80
2022/07/04 10:30:57;;;;;;;;;0.00;0.00;;;;;;;;4883685;29;45260;-78
2022/07/04 10:33:23;;;;;;;;;0.20;0.20;;;;;;;;4895275;29;46648;-78
2022/07/04 10:35:49;;;;;;;;;0.00;0.00;;;;;;;;4884581;28;45302;-78
2022/07/04 10:38:16;;;;;;;;;0.75;0.75;;;;;;;;4895391;29;45228;-78
2022/07/04 10:40:44;;;;;;;;;1.60;0.80;;;;;;;;4885345;29;45430;-78
2022/07/04 10:46:10;;;;;;;;;1.00;0.80;;;;;;;;4884080;29;45466;-78
2022/07/04 10:48:35;;;;;;;;;0.40;0.40;;;;;;;;4888252;29;45294;-79
2022/07/04 10:51:01;;;;;;;;;0.75;0.75;;;;;;;;4880636;29;46728;-78
2022/07/04 10:53:26;;;;;;;;;0.00;0.00;;;;;;;;4886367;29;45949;-79
2022/07/04 10:55:51;;;;;;;;;0.75;0.00;;;;;;;;4889003;28;45559;-78
2022/07/04 10:58:35;;;;;;;;;1.00;1.00;;;;;;;;4888800;29;45340;-78
2022/07/04 11:01:10;;;;;;;;;0.00;0.00;;;;;;;;4893504;28;45843;-79
2022/07/04 11:03:43;;;;;;;;;1.20;0.80;;;;;;;;4900141;29;45544;-79
2022/07/04 11:06:28;;;;;;;;;1.40;1.40;;;;;;;;4882979;29;45293;-78
2022/07/04 11:09:12;;;;;;;;;0.00;0.00;;;;;;;;4890600;29;45452;-78
2022/07/04 11:11:55;;;;;;;;;1.00;1.00;;;;;;;;4888629;29;45317;-78
2022/07/04 11:14:39;;;;;;;;;0.00;0.00;;;;;;;;4885609;28;47260;-78
2022/07/04 11:17:06;;;;;;;;;0.80;0.60;;;;;;;;4884898;29;45385;-78
2022/07/04 11:19:31;;;;;;;;;0.40;0.40;;;;;;;;4886160;29;45405;-78
2022/07/04 11:21:57;;;;;;;;;0.00;0.00;;;;;;;;4880116;29;45336;-78
2022/07/04 11:24:23;;;;;;;;;0.00;0.00;;;;;;;;4886453;29;46691;-78
2022/07/04 11:26:48;;;;;;;;;1.75;0.00;;;;;;;;4877253;29;45417;-78
2022/07/04 11:29:14;;;;;;;;;1.00;1.00;;;;;;;;4888540;29;45278;-78
2022/07/04 11:31:40;;;;;;;;;0.00;0.00;;;;;;;;4880079;29;45323;-79
2022/07/04 11:34:05;;;;;;;;;0.00;0.00;;;;;;;;4892421;29;46542;-79
2022/07/04 11:36:31;;;;;;;;;4.00;1.50;;;;;;;;4886739;29;45337;-79
2022/07/04 11:39:00;;;;;;;;;0.50;0.50;;;;;;;;4891520;29;45418;-78
2022/07/04 11:47:06;;;;;;;;;0.40;0.40;;;;;;;;4884689;29;45301;-73
2022/07/04 11:49:31;;;;;;;;;0.00;0.00;;;;;;;;4883450;29;45371;-74
2022/07/04 11:51:57;;;;;;;;;0.00;0.00;;;;;;;;4891667;29;45314;-77
2022/07/04 11:54:22;;;;;;;;;1.25;0.00;;;;;;;;4884707;29;46196;-78
2022/07/04 11:56:48;;;;;;;;;0.25;0.00;;;;;;;;4889617;29;45447;-78
2022/07/04 11:59:13;;;;;;;;;2.00;0.25;;;;;;;;4884938;29;45486;-78
2022/07/04 12:01:40;;;;;;;;;1.25;1.25;;;;;;;;4886269;29;45533;-78
2022/07/04 12:04:16;;;;;;;;;0.00;0.00;;;;;;;;4882598;29;46543;-78
2022/07/04 12:06:41;;;;;;;;;0.20;0.20;;;;;;;;4892403;29;45513;-77
2022/07/04 12:09:06;;;;;;;;;0.00;0.00;;;;;;;;4885432;29;45338;-77
2022/07/04 12:11:50;;;;;;;;;0.50;0.50;;;;;;;;4880871;29;45603;-78
2022/07/04 12:14:16;;;;;;;;;1.00;1.00;;;;;;;;4877732;29;46315;-77
2022/07/04 12:16:41;;;;;;;;;1.00;0.00;;;;;;;;4888618;29;45553;-78
2022/07/04 12:19:12;;;;;;;;;0.00;0.00;;;;;;;;4888015;29;45583;-77
2022/07/04 12:21:38;;;;;;;;;1.20;0.80;;;;;;;;4885853;29;45951;-77
2022/07/04 12:24:04;;;;;;;;;0.75;0.00;;;;;;;;4896871;28;46986;-77
2022/07/04 12:26:30;;;;;;;;;0.00;0.00;;;;;;;;4882990;28;45371;-78
2022/07/04 12:28:56;;;;;;;;;2.00;1.00;;;;;;;;4893236;29;45373;-77
2022/07/04 12:31:37;;;;;;;;;0.00;0.00;;;;;;;;4883618;29;45556;-76
2022/07/04 12:34:02;;;;;;;;;0.00;0.00;;;;;;;;4896683;29;45582;-76
2022/07/04 12:36:27;;;;;;;;;0.75;0.75;;;;;;;;4881140;29;45402;-76
2022/07/04 12:38:54;;;;;;;;;0.00;0.00;;;;;;;;4886943;29;45441;-76
2022/07/04 12:41:28;;;;;;;;;0.00;0.00;;;;;;;;4879670;29;45548;-77
2022/07/04 12:43:54;;;;;;;;;0.00;0.00;;;;;;;;4892259;29;46990;-77
2022/07/04 12:46:25;;;;;;;;;0.75;0.00;;;;;;;;4882850;29;45313;-78
2022/07/04 12:48:51;;;;;;;;;0.00;0.00;;;;;;;;4894107;29;45344;-78
2022/07/04 12:51:23;;;;;;;;;1.00;0.00;;;;;;;;4877699;29;45775;-77
2022/07/04 12:53:49;;;;;;;;;0.00;0.00;;;;;;;;4881107;29;47508;-78
2022/07/04 12:56:31;;;;;;;;;0.20;0.20;;;;;;;;4881409;29;45292;-78
2022/07/04 12:58:56;;;;;;;;;0.80;0.40;;;;;;;;4881178;29;45256;-78
2022/07/04 13:01:22;;;;;;;;;0.00;0.00;;;;;;;;4879034;29;45481;-78
2022/07/04 13:03:47;;;;;;;;;0.00;0.00;;;;;;;;4887628;29;46924;-77
2022/07/04 13:06:12;;;;;;;;;1.50;0.75;;;;;;;;4879131;29;45346;-76
2022/07/04 13:08:37;;;;;;;;;0.25;0.25;;;;;;;;4896433;29;45322;-77
2022/07/04 13:13:46;;;;;;;;;0.20;0.20;;;;;;;;4883403;29;45323;-77
2022/07/04 13:16:12;;;;;;;;;0.00;0.00;;;;;;;;4886195;29;45371;-77
2022/07/04 13:18:37;;;;;;;;;0.00;0.00;;;;;;;;4900926;28;45352;-77
2022/07/04 13:21:02;;;;;;;;;0.00;0.00;;;;;;;;4888093;29;45535;-77
2022/07/04 13:23:27;;;;;;;;;0.00;0.00;;;;;;;;4894431;28;45306;-77
2022/07/04 13:25:53;;;;;;;;;2.00;0.25;;;;;;;;4872929;29;45491;-77
2022/07/04 13:28:18;;;;;;;;;4.00;0.00;;;;;;;;4888998;29;45318;-79
2022/07/04 13:30:43;;;;;;;;;3.00;1.50;;;;;;;;4891509;29;46210;-77
2022/07/04 13:33:08;;;;;;;;;0.00;0.00;;;;;;;;4900227;29;45449;-77
2022/07/04 13:35:34;;;;;;;;;1.25;0.00;;;;;;;;4884233;29;45509;-77
2022/07/04 13:37:59;;;;;;;;;0.00;0.00;;;;;;;;4894650;29;45354;-77
2022/07/04 13:40:24;;;;;;;;;0.25;0.25;;;;;;;;4885661;28;45499;-77
2022/07/04 13:42:58;;;;;;;;;1.00;0.00;;;;;;;;4896360;28;45605;-77
2022/07/04 13:45:25;;;;;;;;;0.00;0.00;;;;;;;;4882389;29;45444;-77
2022/07/04 13:47:50;;;;;;;;;0.00;0.00;;;;;;;;4900453;29;45499;-76
2022/07/04 13:50:16;;;;;;;;;0.25;0.00;;;;;;;;4882815;28;45416;-75
2022/07/04 13:52:41;;;;;;;;;1.00;0.00;;;;;;;;4898355;28;46638;-74
2022/07/04 13:55:06;;;;;;;;;0.25;0.25;;;;;;;;4890247;28;45420;-74
2022/07/04 13:57:33;;;;;;;;;0.00;0.00;;;;;;;;4892509;28;45250;-74
2022/07/04 13:59:58;;;;;;;;;0.00;0.00;;;;;;;;4886867;29;45486;-74
2022/07/04 14:02:23;;;;;;;;;0.00;0.00;;;;;;;;4886603;29;46509;-74
2022/07/04 14:04:49;;;;;;;;;0.00;0.00;;;;;;;;4885603;29;45408;-74
2022/07/04 14:07:14;;;;;;;;;1.00;0.00;;;;;;;;4885594;29;45222;-74
2022/07/04 14:09:39;;;;;;;;;0.00;0.00;;;;;;;;4886035;29;45448;-74
2022/07/04 14:12:05;;;;;;;;;0.00;0.00;;;;;;;;4889483;29;46786;-74
2022/07/04 14:14:30;;;;;;;;;0.00;0.00;;;;;;;;4888533;29;45289;-73
2022/07/04 14:16:55;;;;;;;;;0.25;0.25;;;;;;;;4892765;28;45254;-74
2022/07/04 14:19:20;;;;;;;;;0.00;0.00;;;;;;;;4888272;29;46418;-73
2022/07/04 14:21:45;;;;;;;;;0.00;0.00;;;;;;;;4894237;29;47383;-74
2022/07/04 14:24:11;;;;;;;;;0.00;0.00;;;;;;;;4895030;28;45494;-73
2022/07/04 14:26:36;;;;;;;;;0.25;0.25;;;;;;;;4883794;28;45511;-73
2022/07/04 14:29:01;;;;;;;;;0.25;0.25;;;;;;;;4894034;29;46954;-73
2022/07/04 14:31:26;;;;;;;;;0.00;0.00;;;;;;;;4883327;29;45340;-73
2022/07/04 14:33:51;;;;;;;;;0.25;0.00;;;;;;;;4885665;29;45165;-73
2022/07/04 14:36:17;;;;;;;;;0.50;0.00;;;;;;;;4880208;29;45265;-73
2022/07/04 14:38:42;;;;;;;;;0.00;0.00;;;;;;;;4890966;29;46036;-73
2022/07/04 14:41:10;;;;;;;;;3.00;0.75;;;;;;;;4879908;29;46404;-73
2022/07/04 14:43:44;;;;;;;;;0.20;0.20;;;;;;;;4891139;29;45434;-73
2022/07/04 14:46:10;;;;;;;;;0.00;0.00;;;;;;;;4886942;29;45495;-72
2022/07/04 14:48:36;;;;;;;;;0.00;0.00;;;;;;;;4891059;29;45420;-73
2022/07/04 14:51:01;;;;;;;;;0.00;0.00;;;;;;;;4888417;29;48398;-73
2022/07/04 14:53:27;;;;;;;;;0.00;0.00;;;;;;;;4894983;29;45231;-73
2022/07/04 14:55:52;;;;;;;;;0.50;0.00;;;;;;;;4893454;28;45412;-73
2022/07/04 14:58:18;;;;;;;;;0.00;0.00;;;;;;;;4897489;29;45377;-73
2022/07/04 15:00:43;;;;;;;;;0.25;0.25;;;;;;;;4884504;28;45443;-73
2022/07/04 15:03:08;;;;;;;;;1.00;0.00;;;;;;;;4895640;29;45553;-73